Terminal Aerodrome Forecast
Issued by NWS Quad Cities IA IL

Home | Current Version | Previous Version | Text Only | Print | Product List | Glossary On
Versions: 1 2 3 4 5 6 7 8 9 10 11 12 13 14 15 16
000
FTUS43 KDVN 021405 AAA
TAFMLI
TAF AMD
KMLI 021405Z 0214/0312 22010KT P6SM SCT070
     FM021530 24012G20KT P6SM SCT080
     FM021700 24015G25KT P6SM SKC
     FM030000 23011KT P6SM SCT050 PROB30 0300/0304 4SM TSRA BKN050CB
     FM030700 30005KT P6SM SKC=

USA.gov is the U.S. government's official web portal to all federal, state and local government web resources and services.